Time;durP1;ratioP1;P1;durP2;ratioP2;P2;SDS_P1;SDS_P2;PMS_P1;PMS_P2;Temp;Humidity;BMP_temperature;BMP_pressure;BME280_temperature;BME280_humidity;BME280_pressure;Samples;Min_cycle;Max_cycle;Signal;HPM_P1;HPM_P2
2021/12/05 00:18:50;;;;;;;4.28;1.10;;;7.90;99.90;;;;;;4999017;28;20194;-79
2021/12/05 00:23:50;;;;;;;3.22;1.00;;;7.80;99.90;;;;;;5008526;28;20254;-78
2021/12/05 00:26:19;;;;;;;3.55;1.20;;;7.80;99.90;;;;;;5010203;28;20198;-78
2021/12/05 00:34:15;;;;;;;3.85;1.25;;;7.80;99.90;;;;;;5007982;28;20186;-79
2021/12/05 00:39:35;;;;;;;3.47;1.23;;;7.60;99.90;;;;;;4992253;28;20610;-79
2021/12/05 00:47:39;;;;;;;6.13;0.90;;;7.50;99.90;;;;;;4992608;28;20222;-78
2021/12/05 01:01:15;;;;;;;7.50;1.45;;;7.40;99.90;;;;;;4981019;28;20175;-78
2021/12/05 01:14:06;;;;;;;6.22;2.40;;;7.30;99.90;;;;;;4976757;28;20182;-78
2021/12/05 01:16:31;;;;;;;4.15;1.08;;;7.30;99.90;;;;;;4994816;28;20226;-78
2021/12/05 01:19:00;;;;;;;6.22;1.00;;;7.30;99.90;;;;;;4976907;28;20281;-78
2021/12/05 01:21:28;;;;;;;4.32;1.20;;;7.30;99.90;;;;;;4978235;28;20175;-78
2021/12/05 01:24:09;;;;;;;6.05;1.63;;;7.30;99.90;;;;;;4978949;28;20183;-79
2021/12/05 01:26:56;;;;;;;4.15;0.90;;;7.30;99.90;;;;;;4975197;28;20166;-79
2021/12/05 01:29:49;;;;;;;4.53;1.42;;;7.40;99.90;;;;;;4995092;28;20171;-79
2021/12/05 01:37:25;;;;;;;2.65;0.90;;;7.40;99.90;;;;;;4963450;28;20210;-79
2021/12/05 01:43:04;;;;;;;6.20;1.60;;;7.40;99.90;;;;;;4978254;28;20198;-78
2021/12/05 01:48:16;;;;;;;7.15;1.20;;;7.30;99.90;;;;;;4978446;28;20678;-78
2021/12/05 01:58:54;;;;;;;4.82;1.35;;;7.30;99.90;;;;;;4978076;28;20573;-78
2021/12/05 02:09:45;;;;;;;7.05;1.13;;;7.50;99.90;;;;;;4979487;28;20258;-78
2021/12/05 02:31:47;;;;;;;5.05;1.10;;;7.80;99.90;;;;;;4980914;28;20175;-78
2021/12/05 02:36:56;;;;;;;10.65;1.73;;;7.90;99.90;;;;;;4980232;28;20171;-79
2021/12/05 02:39:35;;;;;;;5.60;0.90;;;7.90;99.90;;;;;;4979638;28;20210;-78
2021/12/05 02:42:14;;;;;;;3.88;0.90;;;7.90;99.90;;;;;;4994810;28;20667;-78
2021/12/05 02:44:42;;;;;;;2.80;1.30;;;7.90;99.90;;;;;;4976844;28;20159;-78
2021/12/05 02:47:17;;;;;;;5.10;1.60;;;7.90;99.90;;;;;;4976549;28;20271;-79
2021/12/05 02:49:46;;;;;;;7.28;1.35;;;7.90;99.90;;;;;;4944393;28;20218;-78
2021/12/05 02:52:21;;;;;;;5.72;1.00;;;7.90;99.90;;;;;;4976856;28;20206;-79
2021/12/05 02:54:51;;;;;;;2.55;0.70;;;7.80;99.90;;;;;;4994008;28;20170;-79
2021/12/05 02:57:30;;;;;;;3.45;1.45;;;7.80;99.90;;;;;;4976658;28;20182;-79
2021/12/05 02:59:58;;;;;;;4.68;1.33;;;7.80;99.90;;;;;;4976330;28;20248;-79
2021/12/05 03:02:37;;;;;;;2.42;0.80;;;7.80;99.90;;;;;;4993945;28;20194;-78
2021/12/05 03:05:07;;;;;;;4.18;1.10;;;7.80;99.90;;;;;;4976553;28;20175;-79
2021/12/05 03:07:38;;;;;;;5.00;1.98;;;7.80;99.90;;;;;;4976294;28;20187;-78
2021/12/05 03:10:07;;;;;;;3.08;1.27;;;7.80;99.90;;;;;;4976369;28;20179;-79
2021/12/05 03:12:37;;;;;;;6.07;1.42;;;7.80;99.90;;;;;;4959842;28;20310;-79
2021/12/05 03:15:10;;;;;;;5.10;1.33;;;7.80;99.90;;;;;;4976743;28;20210;-79
2021/12/05 03:17:37;;;;;;;6.10;1.85;;;7.70;99.90;;;;;;4960253;28;20179;-78
2021/12/05 03:20:05;;;;;;;5.65;1.30;;;7.70;99.90;;;;;;4999008;28;20195;-78
2021/12/05 03:22:31;;;;;;;5.25;1.70;;;7.60;99.90;;;;;;4984892;28;20191;-78
2021/12/05 03:24:57;;;;;;;4.37;1.17;;;7.60;99.90;;;;;;4981602;28;20172;-78
2021/12/05 03:27:23;;;;;;;5.30;1.00;;;7.60;99.90;;;;;;4982054;28;20989;-78
2021/12/05 03:29:51;;;;;;;5.63;0.90;;;7.50;99.90;;;;;;4981407;28;20179;-78
2021/12/05 03:32:19;;;;;;;3.50;0.93;;;7.50;99.90;;;;;;4980258;28;20275;-78
2021/12/05 03:34:46;;;;;;;3.15;1.40;;;7.40;99.90;;;;;;4976256;28;20167;-78
2021/12/05 03:37:12;;;;;;;8.18;1.48;;;7.40;99.90;;;;;;4960476;28;20171;-78
2021/12/05 03:39:39;;;;;;;4.70;1.20;;;7.30;99.90;;;;;;4978784;28;20543;-78
2021/12/05 03:42:08;;;;;;;4.00;1.00;;;7.30;99.90;;;;;;4977520;28;20543;-78
2021/12/05 03:44:36;;;;;;;4.15;1.10;;;7.20;99.90;;;;;;4979944;28;20175;-78
2021/12/05 03:47:05;;;;;;;4.63;1.00;;;7.20;99.90;;;;;;4996313;28;20163;-78
2021/12/05 03:49:35;;;;;;;8.60;1.17;;;7.20;99.90;;;;;;4975824;28;20541;-78
2021/12/05 03:52:06;;;;;;;1.67;0.70;;;7.20;99.90;;;;;;4995930;28;20536;-78
2021/12/05 03:54:32;;;;;;;2.55;0.90;;;7.20;99.90;;;;;;4979183;28;20639;-78
2021/12/05 03:57:02;;;;;;;6.07;1.75;;;7.10;99.90;;;;;;4978228;28;20175;-78
2021/12/05 03:59:31;;;;;;;3.38;1.20;;;7.10;99.90;;;;;;4993073;28;20625;-78
2021/12/05 04:01:59;;;;;;;10.05;1.35;;;7.10;99.90;;;;;;4975341;28;20237;-79
2021/12/05 04:04:27;;;;;;;4.07;1.10;;;7.00;99.90;;;;;;4975671;28;20172;-78
2021/12/05 04:06:53;;;;;;;2.50;0.90;;;7.00;99.90;;;;;;4975360;28;20588;-78
2021/12/05 04:09:20;;;;;;;5.20;1.10;;;7.00;99.90;;;;;;4975416;28;20605;-78
2021/12/05 04:11:57;;;;;;;5.32;1.48;;;7.00;99.90;;;;;;4959495;28;20201;-78
2021/12/05 04:14:27;;;;;;;6.60;1.00;;;6.90;99.90;;;;;;4978218;28;20541;-77
2021/12/05 04:16:55;;;;;;;3.95;1.00;;;6.90;99.90;;;;;;4977322;28;20197;-77
2021/12/05 04:19:22;;;;;;;3.88;1.10;;;6.90;99.90;;;;;;4976245;28;20554;-77
2021/12/05 04:21:49;;;;;;;2.67;1.02;;;6.80;99.90;;;;;;4977032;28;20198;-77
2021/12/05 04:24:15;;;;;;;2.70;0.90;;;6.80;99.90;;;;;;4978420;28;20178;-77
2021/12/05 04:26:41;;;;;;;2.35;0.75;;;6.80;99.90;;;;;;4978921;28;20326;-77
2021/12/05 04:29:10;;;;;;;6.82;1.10;;;6.80;99.90;;;;;;4975887;28;20301;-77
2021/12/05 04:31:38;;;;;;;2.03;0.70;;;6.70;99.90;;;;;;4975167;28;20170;-77
2021/12/05 04:34:04;;;;;;;6.95;0.85;;;6.70;99.90;;;;;;4991250;28;20163;-77
2021/12/05 04:36:31;;;;;;;3.45;1.00;;;6.70;99.90;;;;;;4975527;28;20175;-77
2021/12/05 04:38:58;;;;;;;2.75;0.75;;;6.70;99.90;;;;;;4975574;28;20203;-77
2021/12/05 04:41:25;;;;;;;3.88;0.70;;;6.60;99.90;;;;;;4975862;28;20179;-77
2021/12/05 04:43:51;;;;;;;4.03;0.80;;;6.60;99.90;;;;;;4976558;28;20167;-77
2021/12/05 04:46:22;;;;;;;3.55;1.00;;;6.60;99.90;;;;;;4959228;28;20622;-77
2021/12/05 04:48:51;;;;;;;1.35;0.73;;;6.50;99.90;;;;;;4992880;28;20171;-77
2021/12/05 04:51:25;;;;;;;7.60;0.80;;;6.50;99.90;;;;;;4975181;28;20214;-77
2021/12/05 04:53:53;;;;;;;3.67;0.90;;;6.40;99.90;;;;;;4995402;28;20571;-77
2021/12/05 04:56:19;;;;;;;2.17;0.90;;;6.40;99.90;;;;;;4974789;28;20175;-77
2021/12/05 04:58:45;;;;;;;3.50;0.80;;;6.40;99.90;;;;;;4992231;28;20290;-77
2021/12/05 05:01:17;;;;;;;3.10;0.68;;;6.30;99.90;;;;;;4974490;28;20194;-77
2021/12/05 05:03:43;;;;;;;4.90;0.83;;;6.20;99.90;;;;;;4994570;28;20199;-77
2021/12/05 05:06:14;;;;;;;4.60;1.17;;;6.20;99.90;;;;;;4978715;28;20189;-77
2021/12/05 05:08:42;;;;;;;3.00;0.70;;;6.20;99.90;;;;;;4996266;28;20181;-77
2021/12/05 05:11:12;;;;;;;2.85;0.77;;;6.10;99.90;;;;;;4996216;28;20535;-77
2021/12/05 05:13:38;;;;;;;12.35;1.90;;;6.10;99.90;;;;;;4996252;28;20260;-82
2021/12/05 05:16:06;;;;;;;1.98;0.90;;;6.10;99.90;;;;;;4978303;28;20171;-82
2021/12/05 05:18:55;;;;;;;4.68;0.90;;;6.10;99.90;;;;;;4977237;28;20691;-82
2021/12/05 05:21:46;;;;;;;3.05;0.70;;;6.10;99.90;;;;;;4995340;28;20175;-81
2021/12/05 05:27:11;;;;;;;3.63;0.73;;;6.10;99.90;;;;;;4987861;28;20210;-82
2021/12/05 05:29:51;;;;;;;4.30;1.00;;;6.10;99.90;;;;;;4982515;28;20569;-81
2021/12/05 05:41:21;;;;;;;9.32;1.55;;;6.00;99.90;;;;;;4969246;28;20563;-83
2021/12/05 05:43:52;;;;;;;2.58;0.90;;;6.00;99.90;;;;;;4972789;28;20199;-83
2021/12/05 05:46:37;;;;;;;1.95;0.65;;;6.00;99.90;;;;;;4957255;28;20553;-84
2021/12/05 05:51:42;;;;;;;2.58;0.93;;;5.90;99.90;;;;;;4984309;28;20191;-82
2021/12/05 05:54:08;;;;;;;3.63;0.90;;;6.00;99.90;;;;;;4986057;28;20278;-83
2021/12/05 05:56:35;;;;;;;2.60;0.90;;;6.00;99.90;;;;;;4971759;28;20187;-83
2021/12/05 05:59:13;;;;;;;1.85;0.70;;;6.00;99.90;;;;;;4984514;28;20641;-83
2021/12/05 06:04:15;;;;;;;4.18;0.80;;;6.10;99.90;;;;;;4986019;28;20179;-84
2021/12/05 06:06:41;;;;;;;2.23;0.80;;;6.20;99.90;;;;;;5002222;28;20222;-83
2021/12/05 06:09:08;;;;;;;5.07;0.80;;;6.20;99.90;;;;;;4987758;28;20668;-84
2021/12/05 06:11:34;;;;;;;3.33;0.85;;;6.20;99.90;;;;;;4997451;28;20243;-83
2021/12/05 06:14:00;;;;;;;2.50;0.80;;;6.20;99.90;;;;;;4976132;28;20168;-84
2021/12/05 06:16:26;;;;;;;2.33;0.80;;;6.30;99.90;;;;;;4977033;28;20171;-83
2021/12/05 06:18:52;;;;;;;1.50;0.80;;;6.20;99.90;;;;;;4976214;28;20691;-82
2021/12/05 06:21:18;;;;;;;2.40;0.70;;;6.30;99.90;;;;;;4958801;28;21054;-83
2021/12/05 06:23:45;;;;;;;4.23;0.83;;;6.20;99.90;;;;;;4958570;28;20602;-84
2021/12/05 06:26:14;;;;;;;3.67;0.80;;;6.20;99.90;;;;;;4975460;28;20563;-83
2021/12/05 06:28:45;;;;;;;2.65;1.02;;;6.20;99.90;;;;;;4957417;28;20226;-83
2021/12/05 06:47:06;;;;;;;3.05;0.95;;;6.10;99.90;;;;;;4956928;28;20232;-84
2021/12/05 06:49:31;;;;;;;3.72;0.80;;;6.10;99.90;;;;;;4973625;28;20198;-84
2021/12/05 06:51:57;;;;;;;1.50;0.73;;;6.10;99.90;;;;;;4973101;28;20288;-84
2021/12/05 06:54:24;;;;;;;3.80;1.37;;;6.10;99.90;;;;;;4972620;28;20212;-84
2021/12/05 06:56:50;;;;;;;2.25;0.70;;;6.00;99.90;;;;;;4974093;28;20176;-84
2021/12/05 06:59:16;;;;;;;3.60;1.17;;;6.00;99.90;;;;;;4956427;28;20226;-84
2021/12/05 07:01:41;;;;;;;4.97;1.50;;;6.00;99.90;;;;;;4973468;28;20168;-81
2021/12/05 07:04:19;;;;;;;3.07;1.00;;;6.00;99.90;;;;;;4973696;28;20176;-81
2021/12/05 07:06:45;;;;;;;4.05;1.25;;;6.00;99.90;;;;;;4973670;28;20174;-81
2021/12/05 07:09:11;;;;;;;1.70;0.80;;;6.00;99.90;;;;;;4956203;28;20178;-82
2021/12/05 07:14:30;;;;;;;8.00;1.10;;;5.90;99.90;;;;;;4989710;28;20197;-82
2021/12/05 07:24:46;;;;;;;2.78;0.80;;;5.80;99.90;;;;;;4974072;28;20167;-82
2021/12/05 07:41:12;;;;;;;2.58;1.00;;;6.00;99.90;;;;;;4976204;28;20184;-84
2021/12/05 07:43:38;;;;;;;4.03;1.00;;;6.10;99.90;;;;;;4960906;28;20349;-83
2021/12/05 07:46:06;;;;;;;2.38;0.80;;;6.20;99.90;;;;;;4964246;28;20183;-84
2021/12/05 07:48:36;;;;;;;2.88;0.90;;;6.20;99.90;;;;;;4964035;28;20187;-83
2021/12/05 07:51:13;;;;;;;4.70;1.20;;;6.30;99.90;;;;;;4964738;28;20222;-86
2021/12/05 07:56:17;;;;;;;4.30;1.10;;;6.50;99.90;;;;;;4962173;28;20541;-83
2021/12/05 08:15:09;;;;;;;4.63;0.98;;;6.70;99.90;;;;;;4962736;28;20183;-80
2021/12/05 08:17:35;;;;;;;1.75;0.80;;;6.70;99.90;;;;;;4966157;28;20178;-80
2021/12/05 08:20:02;;;;;;;2.25;1.00;;;6.80;99.90;;;;;;4962874;28;20210;-81
2021/12/05 08:22:28;;;;;;;2.20;1.05;;;6.80;99.90;;;;;;4936808;29;20232;-80
2021/12/05 08:24:54;;;;;;;2.90;1.00;;;6.90;99.90;;;;;;4952603;29;20736;-81
2021/12/05 08:27:20;;;;;;;2.50;0.90;;;6.90;99.90;;;;;;4953171;29;20176;-85
2021/12/05 08:29:53;;;;;;;4.80;1.30;;;7.00;99.90;;;;;;4952738;29;20209;-80
2021/12/05 08:32:55;;;;;;;2.80;0.88;;;7.00;99.90;;;;;;4953566;29;20639;-83
2021/12/05 08:38:21;;;;;;;3.23;0.90;;;7.10;99.90;;;;;;4953742;28;20172;-84
2021/12/05 08:40:47;;;;;;;2.67;0.90;;;7.00;99.90;;;;;;4957041;28;20226;-80
2021/12/05 08:43:46;;;;;;;1.80;0.80;;;7.00;99.90;;;;;;4939484;29;20212;-82
2021/12/05 10:07:04;;;;;;;3.00;1.30;;;7.50;99.90;;;;;;4977182;28;20521;-82
2021/12/05 10:10:07;;;;;;;4.45;1.42;;;7.50;99.90;;;;;;4961467;28;20668;-78
2021/12/05 10:15:46;;;;;;;3.42;1.30;;;7.60;99.90;;;;;;4983910;28;20734;-83
2021/12/05 10:26:24;;;;;;;3.80;0.90;;;7.80;99.90;;;;;;4985374;28;20203;-83
2021/12/05 10:35:30;;;;;;;2.30;1.20;;;7.90;99.90;;;;;;4975522;28;20736;-82
2021/12/05 10:38:17;;;;;;;2.65;0.82;;;8.00;99.90;;;;;;4981325;28;20171;-82
2021/12/05 10:40:58;;;;;;;1.50;0.90;;;8.10;99.90;;;;;;4986171;28;20207;-83
2021/12/05 10:43:25;;;;;;;1.80;0.80;;;8.10;99.90;;;;;;4939247;29;20208;-82
2021/12/05 10:46:03;;;;;;;4.20;1.33;;;8.20;99.90;;;;;;4975151;28;20223;-82
2021/12/05 10:48:39;;;;;;;3.00;1.23;;;8.20;99.90;;;;;;4977072;28;20593;-83
2021/12/05 10:51:27;;;;;;;2.30;0.90;;;8.20;99.90;;;;;;4995303;28;20173;-83
2021/12/05 10:53:57;;;;;;;2.03;0.80;;;8.20;99.90;;;;;;4994635;28;20171;-83
2021/12/05 10:56:51;;;;;;;2.55;1.00;;;8.20;99.90;;;;;;4994092;28;20169;-83
2021/12/05 10:59:22;;;;;;;1.45;0.90;;;8.30;99.90;;;;;;4977950;28;20226;-84
2021/12/05 11:02:02;;;;;;;1.88;1.02;;;8.30;99.90;;;;;;4976100;28;20187;-81
2021/12/05 11:04:35;;;;;;;4.18;1.20;;;8.30;99.90;;;;;;4995367;28;20159;-84
2021/12/05 11:07:10;;;;;;;2.40;0.93;;;8.30;99.90;;;;;;4994343;28;20195;-84
2021/12/05 11:09:42;;;;;;;1.50;1.00;;;8.40;99.90;;;;;;4995062;28;20221;-84
2021/12/05 11:12:23;;;;;;;2.47;1.20;;;8.40;99.90;;;;;;4961332;28;20269;-81
2021/12/05 11:14:55;;;;;;;2.40;0.70;;;8.50;99.90;;;;;;4961487;28;20237;-74
2021/12/05 11:17:22;;;;;;;2.22;0.80;;;8.60;99.90;;;;;;4995415;28;20245;-74
2021/12/05 11:19:54;;;;;;;2.45;0.70;;;8.70;99.90;;;;;;4977978;28;20217;-75
2021/12/05 11:22:24;;;;;;;1.35;0.70;;;8.80;99.90;;;;;;4995109;28;20576;-74
2021/12/05 11:24:52;;;;;;;1.33;0.70;;;8.90;99.90;;;;;;4979259;28;20175;-74
2021/12/05 11:27:18;;;;;;;2.00;0.80;;;8.90;99.90;;;;;;4977917;28;20222;-74
2021/12/05 11:29:47;;;;;;;2.07;0.70;;;8.90;99.90;;;;;;4979144;28;20175;-74
2021/12/05 11:32:27;;;;;;;1.60;0.93;;;8.90;99.90;;;;;;4995751;28;20609;-74
2021/12/05 11:34:53;;;;;;;1.50;0.80;;;8.90;99.90;;;;;;4993242;28;20203;-74
2021/12/05 11:37:18;;;;;;;1.40;0.70;;;9.00;99.90;;;;;;4976089;28;20565;-73
2021/12/05 11:39:44;;;;;;;2.23;0.70;;;9.00;99.90;;;;;;4993010;28;20228;-73
2021/12/05 11:42:13;;;;;;;2.17;0.80;;;9.00;99.90;;;;;;4975828;28;20547;-73
2021/12/05 11:44:40;;;;;;;2.75;0.77;;;9.10;99.90;;;;;;4992558;28;20530;-74
2021/12/05 11:47:19;;;;;;;2.13;0.85;;;9.10;99.90;;;;;;4992422;28;20171;-74
2021/12/05 11:49:44;;;;;;;1.48;0.85;;;9.20;99.90;;;;;;4975495;28;20167;-74
2021/12/05 11:52:11;;;;;;;1.60;1.33;;;9.20;99.90;;;;;;4977626;28;20667;-74
2021/12/05 11:54:41;;;;;;;3.97;2.00;;;9.20;99.90;;;;;;4993120;28;20663;-79
2021/12/05 11:57:17;;;;;;;2.95;1.40;;;9.20;99.90;;;;;;4992582;28;20179;-79
2021/12/05 11:59:46;;;;;;;1.98;1.20;;;9.30;99.90;;;;;;4991591;28;20194;-78
2021/12/05 12:02:25;;;;;;;2.08;1.00;;;9.20;99.90;;;;;;4992243;28;20193;-78
2021/12/05 12:05:01;;;;;;;1.73;1.25;;;9.30;99.90;;;;;;4992073;28;20162;-78
2021/12/05 12:07:38;;;;;;;1.42;1.00;;;9.30;99.90;;;;;;4975229;28;20308;-78
2021/12/05 12:10:12;;;;;;;2.47;0.90;;;9.40;99.90;;;;;;4975183;28;20536;-79
2021/12/05 12:12:46;;;;;;;3.75;1.13;;;9.40;99.90;;;;;;4982891;28;20554;-79
2021/12/05 12:15:14;;;;;;;2.40;0.95;;;9.40;99.90;;;;;;4936383;29;20168;-78
2021/12/05 12:17:42;;;;;;;1.92;0.82;;;9.50;99.90;;;;;;4922315;29;20208;-80
2021/12/05 12:20:13;;;;;;;2.45;0.80;;;9.60;99.90;;;;;;4974935;28;20277;-79
2021/12/05 12:22:40;;;;;;;3.78;0.85;;;9.50;99.90;;;;;;4957410;28;20584;-79
2021/12/05 12:25:11;;;;;;;2.22;1.25;;;9.60;99.90;;;;;;4955180;28;20203;-80
2021/12/05 12:27:40;;;;;;;2.65;0.80;;;9.70;99.90;;;;;;4954907;28;20258;-80
2021/12/05 12:30:08;;;;;;;1.30;0.63;;;9.80;99.90;;;;;;4971039;28;20176;-81
2021/12/05 12:32:42;;;;;;;1.50;0.60;;;9.70;99.90;;;;;;4939507;28;20230;-81
2021/12/05 12:35:11;;;;;;;1.40;0.50;;;9.70;99.90;;;;;;4954951;28;20194;-81
2021/12/05 12:37:58;;;;;;;1.55;0.60;;;9.70;99.90;;;;;;4973258;28;20179;-80
2021/12/05 12:40:44;;;;;;;2.47;0.52;;;9.70;99.90;;;;;;4944578;28;20203;-80
2021/12/05 12:43:36;;;;;;;1.50;0.60;;;9.70;99.90;;;;;;4958889;28;20187;-84
2021/12/05 12:46:32;;;;;;;1.60;0.60;;;9.60;99.90;;;;;;4984472;28;20637;-87
2021/12/05 12:49:16;;;;;;;1.80;0.63;;;9.50;99.90;;;;;;4976313;28;20221;-88
2021/12/05 12:51:45;;;;;;;1.10;0.50;;;9.60;99.90;;;;;;4975212;28;20174;-86
2021/12/05 12:54:14;;;;;;;2.72;0.90;;;9.60;99.90;;;;;;4979153;28;20159;-85
2021/12/05 12:56:43;;;;;;;1.55;0.68;;;9.60;99.90;;;;;;4978381;28;20172;-87
2021/12/05 12:59:13;;;;;;;2.90;0.90;;;9.70;99.90;;;;;;4955405;28;20390;-86
2021/12/05 13:10:08;;;;;;;2.03;0.90;;;9.80;99.90;;;;;;4971143;28;20219;-86
2021/12/05 13:12:41;;;;;;;1.70;0.90;;;9.90;99.90;;;;;;4972485;28;20606;-83
2021/12/05 13:18:56;;;;;;;1.60;0.80;;;9.90;99.90;;;;;;4931054;28;20277;-74
2021/12/05 13:21:36;;;;;;;1.73;0.90;;;9.90;99.90;;;;;;4955503;28;20175;-73
2021/12/05 13:24:28;;;;;;;1.40;0.80;;;9.90;99.90;;;;;;4956637;28;20223;-73
2021/12/05 13:27:01;;;;;;;2.80;0.70;;;9.90;99.90;;;;;;4959017;28;20215;-74
2021/12/05 13:29:30;;;;;;;4.25;0.70;;;10.00;99.90;;;;;;4975154;28;20202;-74
2021/12/05 13:32:10;;;;;;;1.20;0.60;;;10.00;99.90;;;;;;4958877;28;20271;-74
2021/12/05 13:34:42;;;;;;;1.50;0.60;;;10.00;99.90;;;;;;4975924;28;20226;-73
2021/12/05 13:37:10;;;;;;;1.30;0.55;;;10.00;99.90;;;;;;4974649;28;20222;-74
2021/12/05 13:39:38;;;;;;;1.30;0.65;;;10.00;99.90;;;;;;4975501;28;20228;-74
2021/12/05 13:42:14;;;;;;;1.58;0.60;;;10.00;99.90;;;;;;4958385;28;20278;-74
2021/12/05 13:45:14;;;;;;;1.38;0.40;;;10.00;99.90;;;;;;4975362;28;20175;-74
2021/12/05 13:48:10;;;;;;;2.55;0.70;;;10.00;99.90;;;;;;4960507;28;20194;-74
2021/12/05 13:50:45;;;;;;;1.13;0.52;;;10.00;99.90;;;;;;4973943;28;20179;-74
2021/12/05 13:53:11;;;;;;;1.45;0.70;;;10.00;99.90;;;;;;4975654;28;20214;-74
2021/12/05 13:55:42;;;;;;;1.53;0.57;;;10.00;99.90;;;;;;4961278;28;20172;-74
2021/12/05 13:58:32;;;;;;;1.55;0.70;;;10.00;99.90;;;;;;4975089;28;20575;-74
2021/12/05 14:01:14;;;;;;;1.60;0.50;;;10.00;99.90;;;;;;4975027;28;20211;-74
2021/12/05 14:03:51;;;;;;;1.30;0.50;;;10.00;99.90;;;;;;4958056;28;20195;-73
2021/12/05 14:06:57;;;;;;;1.30;0.50;;;10.00;99.90;;;;;;4974815;28;20207;-74
2021/12/05 14:09:24;;;;;;;1.38;0.60;;;9.90;99.90;;;;;;4974721;28;20258;-74
2021/12/05 14:12:04;;;;;;;1.20;0.60;;;9.90;99.90;;;;;;4957889;28;20575;-74
2021/12/05 14:14:30;;;;;;;3.40;0.80;;;9.90;99.90;;;;;;4976154;28;20291;-74
2021/12/05 14:16:58;;;;;;;1.27;0.50;;;9.80;99.90;;;;;;4976196;28;20179;-74
2021/12/05 14:19:30;;;;;;;2.35;0.93;;;9.80;99.90;;;;;;4976864;28;20293;-74
2021/12/05 14:21:58;;;;;;;1.10;0.50;;;9.80;99.90;;;;;;4958337;28;20296;-74
2021/12/05 14:24:27;;;;;;;1.30;0.55;;;9.80;99.90;;;;;;4976774;28;20531;-75
2021/12/05 14:26:56;;;;;;;2.10;0.60;;;9.80;99.90;;;;;;4961005;28;20219;-74
2021/12/05 14:29:27;;;;;;;1.83;0.60;;;9.80;99.90;;;;;;4977395;28;20256;-74
2021/12/05 14:31:59;;;;;;;2.20;1.38;;;9.80;99.90;;;;;;4958930;28;20318;-74
2021/12/05 14:34:27;;;;;;;6.32;4.13;;;9.70;99.90;;;;;;4976904;28;20172;-74
2021/12/05 14:37:19;;;;;;;3.65;2.22;;;9.70;99.90;;;;;;4976237;28;20222;-73
2021/12/05 14:39:51;;;;;;;3.72;1.90;;;9.70;99.90;;;;;;4942534;28;20203;-74
2021/12/05 14:42:23;;;;;;;3.35;1.35;;;9.70;99.90;;;;;;4957617;28;20202;-73
2021/12/05 14:44:53;;;;;;;1.73;0.70;;;9.70;99.90;;;;;;4957693;28;20539;-74
2021/12/05 14:47:21;;;;;;;1.92;0.90;;;9.70;99.90;;;;;;4976590;28;20168;-74
2021/12/05 14:49:57;;;;;;;1.70;0.80;;;9.70;99.90;;;;;;4976352;28;20655;-74
2021/12/05 14:52:29;;;;;;;1.30;0.80;;;9.80;99.90;;;;;;4976673;28;20202;-74
2021/12/05 14:54:56;;;;;;;1.42;0.80;;;9.80;99.90;;;;;;4957091;28;20667;-74
2021/12/05 14:57:31;;;;;;;4.32;0.85;;;9.70;99.90;;;;;;4974263;28;20175;-74
2021/12/05 15:00:08;;;;;;;2.17;1.25;;;9.70;99.90;;;;;;4958820;28;20289;-75
2021/12/05 15:02:35;;;;;;;1.40;0.80;;;9.70;99.90;;;;;;4975946;28;20198;-74
2021/12/05 15:05:01;;;;;;;1.30;0.77;;;9.70;99.90;;;;;;4977276;28;20198;-74
2021/12/05 15:07:28;;;;;;;1.63;0.80;;;9.70;99.90;;;;;;4942543;28;20555;-73
2021/12/05 15:09:57;;;;;;;1.40;0.68;;;9.70;99.90;;;;;;4974182;28;20175;-73
2021/12/05 15:12:26;;;;;;;1.60;1.00;;;9.70;99.90;;;;;;4973581;28;20825;-73
2021/12/05 15:14:58;;;;;;;1.63;0.60;;;9.70;99.90;;;;;;4973828;28;20176;-73
2021/12/05 15:17:36;;;;;;;3.47;0.80;;;9.70;99.90;;;;;;4973512;28;20531;-73
2021/12/05 15:20:08;;;;;;;2.00;1.02;;;9.70;99.90;;;;;;4973587;28;20560;-73
2021/12/05 15:22:34;;;;;;;3.50;1.80;;;9.70;99.90;;;;;;4956051;28;20200;-73
2021/12/05 15:25:04;;;;;;;7.15;4.10;;;9.70;99.90;;;;;;4974080;28;20178;-73
2021/12/05 15:27:35;;;;;;;3.45;2.45;;;9.70;99.90;;;;;;4975055;28;20172;-73
2021/12/05 15:30:08;;;;;;;2.47;1.30;;;9.70;99.90;;;;;;4975169;28;20168;-74
2021/12/05 15:32:33;;;;;;;3.20;1.00;;;9.70;99.90;;;;;;4975259;28;20270;-74
2021/12/05 15:35:07;;;;;;;3.50;1.70;;;9.70;99.90;;;;;;4977390;28;20176;-75
2021/12/05 15:37:33;;;;;;;2.72;1.58;;;9.70;99.90;;;;;;4976388;28;20719;-74
2021/12/05 15:40:00;;;;;;;2.97;1.30;;;9.60;99.90;;;;;;4973403;28;20203;-73
2021/12/05 15:42:30;;;;;;;2.42;1.00;;;9.70;99.90;;;;;;4973228;28;20617;-73
2021/12/05 15:44:58;;;;;;;3.17;0.93;;;9.70;99.90;;;;;;4973255;28;20564;-73
2021/12/05 15:47:28;;;;;;;2.78;1.90;;;9.80;99.90;;;;;;4939311;28;20226;-74
2021/12/05 15:50:00;;;;;;;3.53;1.65;;;9.80;99.90;;;;;;4974142;28;20223;-74
2021/12/05 15:52:45;;;;;;;2.28;1.35;;;9.80;99.90;;;;;;4973619;28;20690;-73
2021/12/05 15:55:26;;;;;;;2.20;1.10;;;9.80;99.90;;;;;;4956387;28;21485;-73
2021/12/05 15:58:31;;;;;;;2.40;1.27;;;9.80;99.90;;;;;;4974014;28;20173;-73
2021/12/05 16:01:13;;;;;;;2.25;1.20;;;9.80;99.90;;;;;;4953697;28;20195;-74
2021/12/05 16:03:42;;;;;;;2.65;1.60;;;9.80;99.90;;;;;;4975979;28;20734;-75
2021/12/05 16:06:08;;;;;;;2.25;1.48;;;9.70;99.90;;;;;;4979006;28;20176;-74
2021/12/05 16:08:34;;;;;;;2.00;1.48;;;9.70;99.90;;;;;;4961290;28;20651;-74
2021/12/05 16:11:09;;;;;;;4.03;0.90;;;9.80;99.90;;;;;;4978420;28;20175;-75
2021/12/05 16:13:38;;;;;;;2.13;0.90;;;9.80;99.90;;;;;;4982486;28;20965;-74
2021/12/05 16:16:24;;;;;;;1.92;0.90;;;9.80;99.90;;;;;;4980433;28;20179;-75
2021/12/05 16:18:53;;;;;;;2.05;1.17;;;9.70;99.90;;;;;;4978288;28;20172;-74
2021/12/05 16:21:33;;;;;;;1.45;1.00;;;9.80;99.90;;;;;;4979158;28;20172;-75
2021/12/05 16:24:09;;;;;;;1.73;1.30;;;9.70;99.90;;;;;;4976509;28;20579;-74
2021/12/05 16:26:37;;;;;;;2.85;1.20;;;9.60;99.90;;;;;;4974243;28;20810;-74
2021/12/05 16:29:09;;;;;;;1.90;1.50;;;9.50;99.90;;;;;;4973307;28;20745;-73
2021/12/05 16:31:37;;;;;;;2.50;1.00;;;9.50;99.90;;;;;;4971824;28;20176;-74
2021/12/05 16:34:09;;;;;;;2.50;1.30;;;9.50;99.90;;;;;;4971709;28;20699;-73
2021/12/05 16:36:46;;;;;;;5.63;3.38;;;9.40;99.90;;;;;;4973741;28;20581;-73
2021/12/05 16:39:19;;;;;;;3.80;1.90;;;9.30;99.90;;;;;;4972072;28;20207;-79
2021/12/05 16:41:51;;;;;;;5.80;4.35;;;9.30;99.90;;;;;;4972399;28;20184;-79
2021/12/05 16:44:24;;;;;;;4.88;3.10;;;9.30;99.90;;;;;;4970969;28;20656;-77
2021/12/05 16:46:55;;;;;;;5.60;3.30;;;9.30;99.90;;;;;;4972991;28;20171;-77
2021/12/05 16:49:35;;;;;;;5.13;3.33;;;9.30;99.90;;;;;;4957524;28;20645;-78
2021/12/05 16:52:15;;;;;;;3.88;2.10;;;9.30;99.90;;;;;;4966442;28;20215;-79
2021/12/05 16:55:14;;;;;;;2.58;1.10;;;9.20;99.90;;;;;;4958340;28;20307;-75
2021/12/05 16:57:52;;;;;;;2.67;1.42;;;9.20;99.90;;;;;;4959890;28;20245;-78
2021/12/05 17:00:22;;;;;;;2.55;1.55;;;9.10;99.90;;;;;;4983082;28;20278;-78
2021/12/05 17:02:52;;;;;;;1.58;1.00;;;9.10;99.90;;;;;;4976250;28;20706;-77
2021/12/05 17:05:22;;;;;;;4.35;2.20;;;9.10;99.90;;;;;;4958092;28;21101;-78
2021/12/05 17:08:16;;;;;;;2.75;1.33;;;9.00;99.90;;;;;;4958164;28;20662;-77
2021/12/05 17:10:51;;;;;;;2.72;1.88;;;9.00;99.90;;;;;;4975017;28;20195;-77
2021/12/05 17:13:31;;;;;;;1.80;1.10;;;9.00;99.90;;;;;;4960513;28;20210;-74
2021/12/05 17:16:19;;;;;;;2.28;1.10;;;9.10;99.90;;;;;;4970953;28;20187;-77
2021/12/05 17:18:47;;;;;;;1.60;0.98;;;9.10;99.90;;;;;;5026013;23;20282;-81
2021/12/05 17:21:33;;;;;;;2.65;1.30;;;9.10;99.90;;;;;;5017350;28;20175;-81
2021/12/05 17:24:13;;;;;;;1.80;1.13;;;9.00;99.90;;;;;;5006862;28;20155;-81
2021/12/05 17:27:01;;;;;;;2.90;1.27;;;9.00;99.90;;;;;;5022421;28;20553;-80
2021/12/05 17:29:36;;;;;;;2.25;1.08;;;9.00;99.90;;;;;;5014320;28;20223;-80
2021/12/05 17:32:10;;;;;;;2.70;1.05;;;9.00;99.90;;;;;;4988619;28;20701;-80
2021/12/05 17:34:42;;;;;;;4.32;1.48;;;8.90;99.90;;;;;;4969039;28;20193;-81
2021/12/05 17:37:10;;;;;;;2.97;1.83;;;9.00;99.90;;;;;;5003698;28;20171;-82
2021/12/05 17:39:41;;;;;;;4.20;1.85;;;8.90;99.90;;;;;;4990014;28;20202;-80
2021/12/05 17:42:10;;;;;;;3.40;1.52;;;8.90;99.90;;;;;;5004058;28;20572;-80
2021/12/05 17:44:37;;;;;;;3.15;1.35;;;8.80;99.90;;;;;;4988954;28;20179;-80
2021/12/05 17:47:06;;;;;;;2.83;1.15;;;8.70;99.90;;;;;;5000913;28;20178;-81
2021/12/05 17:49:34;;;;;;;1.70;0.90;;;8.70;99.90;;;;;;5010276;28;20214;-80
2021/12/05 17:52:01;;;;;;;2.58;1.40;;;8.70;99.90;;;;;;5009015;28;20167;-79
2021/12/05 17:54:50;;;;;;;2.55;1.17;;;8.60;99.90;;;;;;5009985;28;20175;-80
2021/12/05 17:57:32;;;;;;;2.70;1.20;;;8.70;99.90;;;;;;5003568;28;20202;-79
2021/12/05 18:00:13;;;;;;;2.42;1.10;;;8.70;99.90;;;;;;5022074;28;20199;-80
2021/12/05 18:02:46;;;;;;;1.58;1.10;;;8.70;99.90;;;;;;5020846;28;20170;-80
2021/12/05 18:05:24;;;;;;;2.05;0.90;;;8.70;99.90;;;;;;5021982;28;20650;-80
2021/12/05 18:07:55;;;;;;;2.75;1.13;;;8.70;99.90;;;;;;5004063;28;20204;-80
2021/12/05 18:10:25;;;;;;;3.15;1.30;;;8.70;99.90;;;;;;5023341;28;20270;-83
2021/12/05 18:12:56;;;;;;;2.33;1.20;;;8.70;99.90;;;;;;5006027;28;20240;-81
2021/12/05 18:15:27;;;;;;;2.85;1.20;;;8.70;99.90;;;;;;5028184;28;20181;-80
2021/12/05 18:17:55;;;;;;;2.00;1.45;;;8.70;99.90;;;;;;5013123;28;20201;-79